sensor_id;sensor_type;location;lat;lon;timestamp;pressure;altitude;pressure_sealevel;temperature;humidity
706;BME280;21234;48.690;9.016;2022-12-07T00:01:06;96124.38;;;2.44;100.00
706;BME280;21234;48.690;9.016;2022-12-07T00:03:33;96111.63;;;2.53;100.00
706;BME280;21234;48.690;9.016;2022-12-07T00:06:01;96116.13;;;2.46;100.00
706;BME280;21234;48.690;9.016;2022-12-07T00:08:28;96128.13;;;2.50;100.00
706;BME280;21234;48.690;9.016;2022-12-07T00:10:55;96121.75;;;2.57;100.00
706;BME280;21234;48.690;9.016;2022-12-07T00:13:21;96125.47;;;2.56;100.00
706;BME280;21234;48.690;9.016;2022-12-07T00:15:48;96117.59;;;2.61;100.00
706;BME280;21234;48.690;9.016;2022-12-07T00:18:16;96116.34;;;2.64;100.00
706;BME280;21234;48.690;9.016;2022-12-07T00:20:43;96123.59;;;2.57;100.00
706;BME280;21234;48.690;9.016;2022-12-07T00:23:10;96120.25;;;2.42;100.00
706;BME280;21234;48.690;9.016;2022-12-07T00:25:36;96121.09;;;2.49;100.00
706;BME280;21234;48.690;9.016;2022-12-07T00:28:03;96119.66;;;2.46;100.00
706;BME280;21234;48.690;9.016;2022-12-07T00:30:30;96117.16;;;2.38;100.00
706;BME280;21234;48.690;9.016;2022-12-07T00:32:57;96109.75;;;2.53;100.00
706;BME280;21234;48.690;9.016;2022-12-07T00:35:25;96107.25;;;2.45;100.00
706;BME280;21234;48.690;9.016;2022-12-07T00:37:51;96116.53;;;2.36;100.00
706;BME280;21234;48.690;9.016;2022-12-07T00:40:18;96118.38;;;2.35;100.00
706;BME280;21234;48.690;9.016;2022-12-07T00:42:45;96120.22;;;2.35;100.00
706;BME280;21234;48.690;9.016;2022-12-07T00:45:11;96112.78;;;2.30;100.00
706;BME280;21234;48.690;9.016;2022-12-07T00:47:38;96110.94;;;2.24;100.00
706;BME280;21234;48.690;9.016;2022-12-07T00:50:06;96115.47;;;2.24;100.00
706;BME280;21234;48.690;9.016;2022-12-07T00:52:34;96111.13;;;2.23;100.00
706;BME280;21234;48.690;9.016;2022-12-07T00:55:01;96112.78;;;2.30;100.00
706;BME280;21234;48.690;9.016;2022-12-07T00:57:27;96112.78;;;2.30;100.00
706;BME280;21234;48.690;9.016;2022-12-07T00:59:54;96113.41;;;2.32;100.00
706;BME280;21234;48.690;9.016;2022-12-07T01:02:23;96108.25;;;2.31;100.00
706;BME280;21234;48.690;9.016;2022-12-07T01:04:50;96114.22;;;2.33;100.00
706;BME280;21234;48.690;9.016;2022-12-07T01:07:16;96113.59;;;2.31;100.00
706;BME280;21234;48.690;9.016;2022-12-07T01:09:44;96112.97;;;2.29;100.00
706;BME280;21234;48.690;9.016;2022-12-07T01:12:11;96119.38;;;2.28;100.00
706;BME280;21234;48.690;9.016;2022-12-07T01:14:38;96117.13;;;2.25;100.00
706;BME280;21234;48.690;9.016;2022-12-07T01:17:04;96112.78;;;2.24;100.00
706;BME280;21234;48.690;9.016;2022-12-07T01:19:31;96111.31;;;2.28;100.00
706;BME280;21234;48.690;9.016;2022-12-07T01:21:58;96115.06;;;2.33;100.00
706;BME280;21234;48.690;9.016;2022-12-07T01:24:24;96118.78;;;2.39;100.00
706;BME280;21234;48.690;9.016;2022-12-07T01:26:52;96113.25;;;2.47;100.00
706;BME280;21234;48.690;9.016;2022-12-07T01:29:19;96115.50;;;2.44;100.00
706;BME280;21234;48.690;9.016;2022-12-07T01:31:48;96117.16;;;2.45;100.00
706;BME280;21234;48.690;9.016;2022-12-07T01:34:15;96129.31;;;2.41;100.00
706;BME280;21234;48.690;9.016;2022-12-07T01:36:42;96128.69;;;2.32;100.00
706;BME280;21234;48.690;9.016;2022-12-07T01:39:09;96128.06;;;2.30;100.00
706;BME280;21234;48.690;9.016;2022-12-07T01:41:37;96136.13;;;2.36;100.00
706;BME280;21234;48.690;9.016;2022-12-07T01:44:14;96130.56;;;2.38;100.00
706;BME280;21234;48.690;9.016;2022-12-07T01:46:42;96129.75;;;2.44;100.00
706;BME280;21234;48.690;9.016;2022-12-07T01:49:12;96131.84;;;2.49;100.00
706;BME280;21234;48.690;9.016;2022-12-07T01:51:41;96133.47;;;2.43;100.00
706;BME280;21234;48.690;9.016;2022-12-07T01:54:11;96132.00;;;2.34;100.00
706;BME280;21234;48.690;9.016;2022-12-07T01:56:40;96123.94;;;2.34;100.00
706;BME280;21234;48.690;9.016;2022-12-07T01:59:10;96132.59;;;2.29;100.00
706;BME280;21234;48.690;9.016;2022-12-07T02:01:37;96133.03;;;2.26;100.00
706;BME280;21234;48.690;9.016;2022-12-07T02:04:04;96131.13;;;2.20;100.00
706;BME280;21234;48.690;9.016;2022-12-07T02:06:32;96134.84;;;2.19;100.00
706;BME280;21234;48.690;9.016;2022-12-07T02:09:00;96139.38;;;2.19;100.00
706;BME280;21234;48.690;9.016;2022-12-07T02:11:26;96139.00;;;2.22;100.00
706;BME280;21234;48.690;9.016;2022-12-07T02:13:53;96139.19;;;2.20;100.00
706;BME280;21234;48.690;9.016;2022-12-07T02:16:27;96136.72;;;2.25;100.00
706;BME280;21234;48.690;9.016;2022-12-07T02:19:07;96140.00;;;2.21;100.00
706;BME280;21234;48.690;9.016;2022-12-07T02:21:45;96144.34;;;2.22;100.00
706;BME280;21234;48.690;9.016;2022-12-07T02:24:27;96143.53;;;2.28;100.00
706;BME280;21234;48.690;9.016;2022-12-07T02:27:16;96130.53;;;2.25;100.00
706;BME280;21234;48.690;9.016;2022-12-07T02:29:54;96124.56;;;2.36;100.00
706;BME280;21234;48.690;9.016;2022-12-07T02:32:27;96129.94;;;2.36;100.00
706;BME280;21234;48.690;9.016;2022-12-07T02:35:02;96128.91;;;2.37;100.00
706;BME280;21234;48.690;9.016;2022-12-07T02:37:36;96121.03;;;2.22;100.00
706;BME280;21234;48.690;9.016;2022-12-07T02:40:09;96118.97;;;2.31;100.00
706;BME280;21234;48.690;9.016;2022-12-07T02:42:41;96124.31;;;2.18;100.00
706;BME280;21234;48.690;9.016;2022-12-07T02:45:12;96133.81;;;2.20;100.00
706;BME280;21234;48.690;9.016;2022-12-07T02:47:41;96125.19;;;2.25;100.00
706;BME280;21234;48.690;9.016;2022-12-07T02:50:10;96133.63;;;2.22;100.00
706;BME280;21234;48.690;9.016;2022-12-07T02:52:37;96122.69;;;2.23;100.00
706;BME280;21234;48.690;9.016;2022-12-07T02:55:04;96122.66;;;2.17;100.00
706;BME280;21234;48.690;9.016;2022-12-07T02:57:42;96114.81;;;2.15;100.00
706;BME280;21234;48.690;9.016;2022-12-07T03:00:15;96113.75;;;2.10;100.00
706;BME280;21234;48.690;9.016;2022-12-07T03:02:50;96112.75;;;2.17;100.00
706;BME280;21234;48.690;9.016;2022-12-07T03:05:29;96115.66;;;2.16;100.00
706;BME280;21234;48.690;9.016;2022-12-07T03:08:01;96105.72;;;2.10;100.00
706;BME280;21234;48.690;9.016;2022-12-07T03:10:36;96108.00;;;2.13;100.00
706;BME280;21234;48.690;9.016;2022-12-07T03:13:09;96108.84;;;2.20;100.00
706;BME280;21234;48.690;9.016;2022-12-07T03:15:45;96107.81;;;2.21;100.00
706;BME280;21234;48.690;9.016;2022-12-07T03:18:17;96094.38;;;2.08;100.00
706;BME280;21234;48.690;9.016;2022-12-07T03:20:48;96105.50;;;2.05;100.00
706;BME280;21234;48.690;9.016;2022-12-07T03:23:18;96097.69;;;2.10;100.00
706;BME280;21234;48.690;9.016;2022-12-07T03:25:48;96097.84;;;2.01;100.00
706;BME280;21234;48.690;9.016;2022-12-07T03:28:18;96098.88;;;1.94;100.00
706;BME280;21234;48.690;9.016;2022-12-07T03:30:49;96099.66;;;1.88;100.00
706;BME280;21234;48.690;9.016;2022-12-07T03:33:21;96099.06;;;1.99;100.00
706;BME280;21234;48.690;9.016;2022-12-07T03:35:52;96105.13;;;2.14;100.00
706;BME280;21234;48.690;9.016;2022-12-07T03:38:25;96105.16;;;2.21;100.00
706;BME280;21234;48.690;9.016;2022-12-07T03:40:58;96096.50;;;2.25;100.00
706;BME280;21234;48.690;9.016;2022-12-07T03:43:28;96094.16;;;2.09;100.00
706;BME280;21234;48.690;9.016;2022-12-07T03:46:03;96097.03;;;2.01;100.00
706;BME280;21234;48.690;9.016;2022-12-07T03:48:35;96090.00;;;1.93;100.00
706;BME280;21234;48.690;9.016;2022-12-07T03:51:08;96097.63;;;1.90;100.00
706;BME280;21234;48.690;9.016;2022-12-07T03:53:40;96097.63;;;1.96;100.00
706;BME280;21234;48.690;9.016;2022-12-07T03:56:10;96099.47;;;1.89;100.00
706;BME280;21234;48.690;9.016;2022-12-07T03:58:38;96091.41;;;1.83;100.00
706;BME280;21234;48.690;9.016;2022-12-07T04:01:07;96100.25;;;1.83;100.00
706;BME280;21234;48.690;9.016;2022-12-07T04:03:34;96098.81;;;1.81;100.00
706;BME280;21234;48.690;9.016;2022-12-07T04:06:01;96096.53;;;1.78;100.00
706;BME280;21234;48.690;9.016;2022-12-07T04:08:28;96089.50;;;1.77;100.00
706;BME280;21234;48.690;9.016;2022-12-07T04:10:55;96093.41;;;1.74;100.00
706;BME280;21234;48.690;9.016;2022-12-07T04:13:21;96090.78;;;1.81;100.00
706;BME280;21234;48.690;9.016;2022-12-07T04:15:48;96084.00;;;1.91;100.00
706;BME280;21234;48.690;9.016;2022-12-07T04:18:16;96088.13;;;1.87;100.00
706;BME280;21234;48.690;9.016;2022-12-07T04:20:43;96081.91;;;1.80;100.00
706;BME280;21234;48.690;9.016;2022-12-07T04:23:09;96083.34;;;1.83;99.96
706;BME280;21234;48.690;9.016;2022-12-07T04:25:36;96082.91;;;1.73;100.00
706;BME280;21234;48.690;9.016;2022-12-07T04:28:03;96078.03;;;1.89;100.00
706;BME280;21234;48.690;9.016;2022-12-07T04:30:30;96084.41;;;1.88;100.00
706;BME280;21234;48.690;9.016;2022-12-07T04:32:56;96090.41;;;1.90;100.00
706;BME280;21234;48.690;9.016;2022-12-07T04:35:24;96087.31;;;2.00;100.00
706;BME280;21234;48.690;9.016;2022-12-07T04:37:51;96090.00;;;2.00;100.00
706;BME280;21234;48.690;9.016;2022-12-07T04:40:18;96090.22;;;2.05;100.00
706;BME280;21234;48.690;9.016;2022-12-07T04:42:44;96080.97;;;2.08;100.00
706;BME280;21234;48.690;9.016;2022-12-07T04:45:11;96077.44;;;1.94;100.00
706;BME280;21234;48.690;9.016;2022-12-07T04:47:38;96080.50;;;1.91;100.00
706;BME280;21234;48.690;9.016;2022-12-07T04:50:06;96082.72;;;1.81;100.00
706;BME280;21234;48.690;9.016;2022-12-07T04:52:34;96075.63;;;1.60;100.00
706;BME280;21234;48.690;9.016;2022-12-07T04:55:01;96079.38;;;1.72;100.00
706;BME280;21234;48.690;9.016;2022-12-07T04:57:27;96078.19;;;1.81;100.00
706;BME280;21234;48.690;9.016;2022-12-07T04:59:54;96071.44;;;1.92;100.00
706;BME280;21234;48.690;9.016;2022-12-07T05:02:21;96062.56;;;1.91;99.72
706;BME280;21234;48.690;9.016;2022-12-07T05:04:47;96065.84;;;1.87;99.59
706;BME280;21234;48.690;9.016;2022-12-07T05:07:14;96063.38;;;1.85;99.31
706;BME280;21234;48.690;9.016;2022-12-07T05:09:42;96062.31;;;1.80;98.83
706;BME280;21234;48.690;9.016;2022-12-07T05:12:08;96058.56;;;1.74;98.15
706;BME280;21234;48.690;9.016;2022-12-07T05:14:35;96049.28;;;1.70;97.98
706;BME280;21234;48.690;9.016;2022-12-07T05:17:02;96053.63;;;1.71;97.99
706;BME280;21234;48.690;9.016;2022-12-07T05:19:29;96053.63;;;1.71;96.80
706;BME280;21234;48.690;9.016;2022-12-07T05:21:56;96052.00;;;1.77;97.00
706;BME280;21234;48.690;9.016;2022-12-07T05:24:23;96050.16;;;1.84;97.58
706;BME280;21234;48.690;9.016;2022-12-07T05:26:51;96045.00;;;1.82;97.22
706;BME280;21234;48.690;9.016;2022-12-07T05:29:17;96031.97;;;1.73;97.22
706;BME280;21234;48.690;9.016;2022-12-07T05:31:44;96034.44;;;1.67;97.35
706;BME280;21234;48.690;9.016;2022-12-07T05:34:11;96043.91;;;1.70;96.83
706;BME280;21234;48.690;9.016;2022-12-07T05:36:38;96044.50;;;1.65;94.35
706;BME280;21234;48.690;9.016;2022-12-07T05:39:05;96054.31;;;1.45;93.56
706;BME280;21234;48.690;9.016;2022-12-07T05:41:32;96052.09;;;1.49;94.48
706;BME280;21234;48.690;9.016;2022-12-07T05:44:18;96048.28;;;1.30;92.87
706;BME280;21234;48.690;9.016;2022-12-07T05:46:44;96056.69;;;1.20;91.55
706;BME280;21234;48.690;9.016;2022-12-07T05:49:11;96053.41;;;1.25;93.65
706;BME280;21234;48.690;9.016;2022-12-07T05:51:38;96059.53;;;1.19;92.99
706;BME280;21234;48.690;9.016;2022-12-07T05:54:04;96063.06;;;1.19;93.44
706;BME280;21234;48.690;9.016;2022-12-07T05:56:31;96066.91;;;1.10;93.39
706;BME280;21234;48.690;9.016;2022-12-07T05:58:58;96063.41;;;1.10;93.76
706;BME280;21234;48.690;9.016;2022-12-07T06:01:44;96064.06;;;1.18;94.67
706;BME280;21234;48.690;9.016;2022-12-07T06:04:10;96068.84;;;1.23;94.97
706;BME280;21234;48.690;9.016;2022-12-07T06:06:37;96073.28;;;1.09;95.87
706;BME280;21234;48.690;9.016;2022-12-07T06:09:04;96080.00;;;0.98;97.86
706;BME280;21234;48.690;9.016;2022-12-07T06:11:31;96080.81;;;0.99;99.57
706;BME280;21234;48.690;9.016;2022-12-07T06:14:15;96080.34;;;0.89;100.00
706;BME280;21234;48.690;9.016;2022-12-07T06:16:41;96084.63;;;0.83;100.00
706;BME280;21234;48.690;9.016;2022-12-07T06:19:09;96080.50;;;0.81;100.00
706;BME280;21234;48.690;9.016;2022-12-07T06:21:36;96083.75;;;0.76;100.00
706;BME280;21234;48.690;9.016;2022-12-07T06:24:03;96079.09;;;0.85;100.00
706;BME280;21234;48.690;9.016;2022-12-07T06:26:30;96080.81;;;0.99;100.00
706;BME280;21234;48.690;9.016;2022-12-07T06:28:57;96087.34;;;1.18;100.00
706;BME280;21234;48.690;9.016;2022-12-07T06:31:23;96081.44;;;1.01;98.14
706;BME280;21234;48.690;9.016;2022-12-07T06:33:50;96089.72;;;1.06;98.34
706;BME280;21234;48.690;9.016;2022-12-07T06:36:18;96085.59;;;1.04;97.34
706;BME280;21234;48.690;9.016;2022-12-07T06:38:45;96092.78;;;1.03;97.02
706;BME280;21234;48.690;9.016;2022-12-07T06:41:12;96106.16;;;0.96;97.43
706;BME280;21234;48.690;9.016;2022-12-07T06:43:38;96089.69;;;0.99;98.07
706;BME280;21234;48.690;9.016;2022-12-07T06:46:05;96090.91;;;0.97;98.46
706;BME280;21234;48.690;9.016;2022-12-07T06:48:32;96090.28;;;0.95;98.52
706;BME280;21234;48.690;9.016;2022-12-07T06:50:58;96081.84;;;0.98;99.48
706;BME280;21234;48.690;9.016;2022-12-07T06:53:26;96091.00;;;1.10;100.00
706;BME280;21234;48.690;9.016;2022-12-07T06:55:53;96113.94;;;0.91;100.00
706;BME280;21234;48.690;9.016;2022-12-07T06:58:20;96106.47;;;0.87;100.00
706;BME280;21234;48.690;9.016;2022-12-07T07:00:48;96107.38;;;0.94;100.00
706;BME280;21234;48.690;9.016;2022-12-07T07:03:15;96100.94;;;0.88;100.00
706;BME280;21234;48.690;9.016;2022-12-07T07:05:41;96102.41;;;0.91;100.00
706;BME280;21234;48.690;9.016;2022-12-07T07:08:08;96099.16;;;1.02;100.00
706;BME280;21234;48.690;9.016;2022-12-07T07:10:36;96096.50;;;1.02;100.00
706;BME280;21234;48.690;9.016;2022-12-07T07:13:04;96086.84;;;1.08;100.00
706;BME280;21234;48.690;9.016;2022-12-07T07:15:31;96085.50;;;1.18;100.00
706;BME280;21234;48.690;9.016;2022-12-07T07:17:58;96090.66;;;1.20;100.00
706;BME280;21234;48.690;9.016;2022-12-07T07:20:24;96096.69;;;1.28;100.00
706;BME280;21234;48.690;9.016;2022-12-07T07:22:54;96088.88;;;1.33;100.00
706;BME280;21234;48.690;9.016;2022-12-07T07:25:21;96083.91;;;1.30;100.00
706;BME280;21234;48.690;9.016;2022-12-07T07:27:49;96089.41;;;1.16;100.00
706;BME280;21234;48.690;9.016;2022-12-07T07:30:16;96089.59;;;1.14;100.00
706;BME280;21234;48.690;9.016;2022-12-07T07:32:43;96084.88;;;1.16;100.00
706;BME280;21234;48.690;9.016;2022-12-07T07:35:09;96089.34;;;1.09;100.00
706;BME280;21234;48.690;9.016;2022-12-07T07:37:36;96091.88;;;1.17;100.00
706;BME280;21234;48.690;9.016;2022-12-07T07:40:03;96086.53;;;1.17;99.41
706;BME280;21234;48.690;9.016;2022-12-07T07:42:30;96086.91;;;1.14;99.00
706;BME280;21234;48.690;9.016;2022-12-07T07:44:58;96095.53;;;1.10;98.28
706;BME280;21234;48.690;9.016;2022-12-07T07:47:25;96099.22;;;1.09;98.12
706;BME280;21234;48.690;9.016;2022-12-07T07:49:51;96103.47;;;1.31;99.32
706;BME280;21234;48.690;9.016;2022-12-07T07:52:18;96115.13;;;1.45;98.56
706;BME280;21234;48.690;9.016;2022-12-07T07:54:45;96113.31;;;1.52;98.97
706;BME280;21234;48.690;9.016;2022-12-07T07:57:12;96122.00;;;1.60;97.45
706;BME280;21234;48.690;9.016;2022-12-07T07:59:38;96115.78;;;1.53;97.15
706;BME280;21234;48.690;9.016;2022-12-07T08:02:09;96115.16;;;1.51;96.77
706;BME280;21234;48.690;9.016;2022-12-07T08:04:39;96114.69;;;1.41;94.02
706;BME280;21234;48.690;9.016;2022-12-07T08:07:06;96108.34;;;1.49;95.11
706;BME280;21234;48.690;9.016;2022-12-07T08:09:33;96114.81;;;1.61;94.92
706;BME280;21234;48.690;9.016;2022-12-07T08:11:59;96113.75;;;1.55;93.33
706;BME280;21234;48.690;9.016;2022-12-07T08:14:27;96112.75;;;1.69;93.94
706;BME280;21234;48.690;9.016;2022-12-07T08:16:54;96118.19;;;1.83;94.32
706;BME280;21234;48.690;9.016;2022-12-07T08:19:22;96111.00;;;1.83;92.80
706;BME280;21234;48.690;9.016;2022-12-07T08:21:49;96114.47;;;1.77;91.79
706;BME280;21234;48.690;9.016;2022-12-07T08:24:16;96113.28;;;1.86;91.96
706;BME280;21234;48.690;9.016;2022-12-07T08:26:43;96123.31;;;1.78;90.71
706;BME280;21234;48.690;9.016;2022-12-07T08:29:10;96122.69;;;1.76;91.14
706;BME280;21234;48.690;9.016;2022-12-07T08:31:37;96129.28;;;1.73;89.64
706;BME280;21234;48.690;9.016;2022-12-07T08:34:05;96133.03;;;1.79;89.29
706;BME280;21234;48.690;9.016;2022-12-07T08:36:33;96127.31;;;1.88;89.92
706;BME280;21234;48.690;9.016;2022-12-07T08:38:59;96124.03;;;1.93;89.43
706;BME280;21234;48.690;9.016;2022-12-07T08:41:26;96129.00;;;2.02;88.82
706;BME280;21234;48.690;9.016;2022-12-07T08:43:53;96125.06;;;1.98;87.90
706;BME280;21234;48.690;9.016;2022-12-07T08:46:22;96128.38;;;2.00;87.37
706;BME280;21234;48.690;9.016;2022-12-07T08:48:53;96127.56;;;2.07;86.97
706;BME280;21234;48.690;9.016;2022-12-07T08:51:22;96135.03;;;2.18;89.81
706;BME280;21234;48.690;9.016;2022-12-07T08:53:51;96134.25;;;2.24;87.88
706;BME280;21234;48.690;9.016;2022-12-07T08:56:19;96136.53;;;2.33;87.61
706;BME280;21234;48.690;9.016;2022-12-07T08:58:47;96134.66;;;2.21;85.75
706;BME280;21234;48.690;9.016;2022-12-07T09:01:14;96131.34;;;2.19;83.98
706;BME280;21234;48.690;9.016;2022-12-07T09:03:41;96127.03;;;2.31;85.77
706;BME280;21234;48.690;9.016;2022-12-07T09:06:07;96134.66;;;2.21;83.31
706;BME280;21234;48.690;9.016;2022-12-07T09:08:37;96133.22;;;2.31;85.45
706;BME280;21234;48.690;9.016;2022-12-07T09:11:06;96139.44;;;2.39;85.16
706;BME280;21234;48.690;9.016;2022-12-07T09:13:33;96131.34;;;2.19;82.90
706;BME280;21234;48.690;9.016;2022-12-07T09:15:59;96137.28;;;2.08;82.91
706;BME280;21234;48.690;9.016;2022-12-07T09:18:26;96135.28;;;2.23;83.71
706;BME280;21234;48.690;9.016;2022-12-07T09:20:53;96128.06;;;2.30;84.62
706;BME280;21234;48.690;9.016;2022-12-07T09:23:20;96133.41;;;2.23;83.41
706;BME280;21234;48.690;9.016;2022-12-07T09:25:46;96138.19;;;2.41;84.59
706;BME280;21234;48.690;9.016;2022-12-07T09:28:14;96141.09;;;2.40;83.25
706;BME280;21234;48.690;9.016;2022-12-07T09:30:45;96142.13;;;2.45;81.71
706;BME280;21234;48.690;9.016;2022-12-07T09:33:12;96136.38;;;2.48;81.79
706;BME280;21234;48.690;9.016;2022-12-07T09:35:44;96136.16;;;2.50;81.86
706;BME280;21234;48.690;9.016;2022-12-07T09:38:11;96132.69;;;2.56;80.99
706;BME280;21234;48.690;9.016;2022-12-07T09:40:38;96119.47;;;2.54;81.49
706;BME280;21234;48.690;9.016;2022-12-07T09:43:04;96133.50;;;2.63;81.80
706;BME280;21234;48.690;9.016;2022-12-07T09:45:34;96125.47;;;2.56;81.24
706;BME280;21234;48.690;9.016;2022-12-07T09:48:02;96126.28;;;2.57;80.63
706;BME280;21234;48.690;9.016;2022-12-07T09:50:30;96118.84;;;2.52;80.98
706;BME280;21234;48.690;9.016;2022-12-07T09:53:06;96121.06;;;2.42;81.12
706;BME280;21234;48.690;9.016;2022-12-07T09:55:35;96121.06;;;2.35;80.36
706;BME280;21234;48.690;9.016;2022-12-07T09:58:03;96113.06;;;2.49;80.39
706;BME280;21234;48.690;9.016;2022-12-07T10:00:30;96106.22;;;2.46;80.32
706;BME280;21234;48.690;9.016;2022-12-07T10:03:00;96105.81;;;2.62;80.87
706;BME280;21234;48.690;9.016;2022-12-07T10:05:29;96105.22;;;2.74;82.98
706;BME280;21234;48.690;9.016;2022-12-07T10:07:57;96108.72;;;2.67;80.36
706;BME280;21234;48.690;9.016;2022-12-07T10:10:26;96100.47;;;2.62;79.81
706;BME280;21234;48.690;9.016;2022-12-07T10:12:55;96101.50;;;2.61;80.83
706;BME280;21234;48.690;9.016;2022-12-07T10:15:22;96097.81;;;2.82;80.22
706;BME280;21234;48.690;9.016;2022-12-07T10:17:51;96099.03;;;2.93;78.42
706;BME280;21234;48.690;9.016;2022-12-07T10:20:23;96089.75;;;2.76;78.96
706;BME280;21234;48.690;9.016;2022-12-07T10:23:01;96093.91;;;2.91;79.82
706;BME280;21234;48.690;9.016;2022-12-07T10:25:30;96087.88;;;3.02;80.29
706;BME280;21234;48.690;9.016;2022-12-07T10:28:13;96082.94;;;3.13;81.44
706;BME280;21234;48.690;9.016;2022-12-07T10:30:52;96084.56;;;3.00;78.81
706;BME280;21234;48.690;9.016;2022-12-07T10:33:30;96084.38;;;3.09;79.71
706;BME280;21234;48.690;9.016;2022-12-07T10:35:59;96085.00;;;3.11;79.07
706;BME280;21234;48.690;9.016;2022-12-07T10:38:26;96075.91;;;3.25;79.82
706;BME280;21234;48.690;9.016;2022-12-07T10:41:05;96074.22;;;3.30;80.75
706;BME280;21234;48.690;9.016;2022-12-07T10:43:33;96079.63;;;3.24;80.09
706;BME280;21234;48.690;9.016;2022-12-07T10:46:31;96088.50;;;2.98;78.95
706;BME280;21234;48.690;9.016;2022-12-07T10:49:13;96076.09;;;3.03;80.33
706;BME280;21234;48.690;9.016;2022-12-07T10:51:51;96068.88;;;3.17;79.83
706;BME280;21234;48.690;9.016;2022-12-07T10:54:28;96061.19;;;3.27;79.79
706;BME280;21234;48.690;9.016;2022-12-07T10:57:09;96059.16;;;3.03;78.96
706;BME280;21234;48.690;9.016;2022-12-07T11:00:00;96060.97;;;3.29;80.37
706;BME280;21234;48.690;9.016;2022-12-07T11:02:42;96055.66;;;2.96;78.96
706;BME280;21234;48.690;9.016;2022-12-07T11:05:19;96060.81;;;3.24;79.44
706;BME280;21234;48.690;9.016;2022-12-07T11:08:00;96050.22;;;3.35;79.30
706;BME280;21234;48.690;9.016;2022-12-07T11:10:35;96052.31;;;3.27;79.90
706;BME280;21234;48.690;9.016;2022-12-07T11:13:21;96051.88;;;3.36;79.42
706;BME280;21234;48.690;9.016;2022-12-07T11:16:02;96047.31;;;3.44;80.25
706;BME280;21234;48.690;9.016;2022-12-07T11:18:35;96045.81;;;3.61;80.32
706;BME280;21234;48.690;9.016;2022-12-07T11:21:08;96037.16;;;3.52;79.13
706;BME280;21234;48.690;9.016;2022-12-07T11:23:46;96035.25;;;3.59;79.13
706;BME280;21234;48.690;9.016;2022-12-07T11:26:25;96029.16;;;3.32;79.07
706;BME280;21234;48.690;9.016;2022-12-07T11:29:15;96034.31;;;3.41;80.17
706;BME280;21234;48.690;9.016;2022-12-07T11:31:54;96034.50;;;3.46;80.09
706;BME280;21234;48.690;9.016;2022-12-07T11:34:31;96030.56;;;3.42;78.40
706;BME280;21234;48.690;9.016;2022-12-07T11:37:02;96024.97;;;3.56;80.71
706;BME280;21234;48.690;9.016;2022-12-07T11:39:35;96020.03;;;3.47;79.12
706;BME280;21234;48.690;9.016;2022-12-07T11:42:06;96019.19;;;3.53;80.20
706;BME280;21234;48.690;9.016;2022-12-07T11:44:39;96016.91;;;3.50;79.72
706;BME280;21234;48.690;9.016;2022-12-07T11:47:16;96007.41;;;3.54;80.09
706;BME280;21234;48.690;9.016;2022-12-07T11:49:48;96011.97;;;3.47;80.51
706;BME280;21234;48.690;9.016;2022-12-07T11:52:22;96004.53;;;3.35;80.55
706;BME280;21234;48.690;9.016;2022-12-07T11:54:53;96007.81;;;3.51;81.41
706;BME280;21234;48.690;9.016;2022-12-07T11:57:25;95998.75;;;3.38;79.82
706;BME280;21234;48.690;9.016;2022-12-07T11:59:59;96004.13;;;3.38;80.16
706;BME280;21234;48.690;9.016;2022-12-07T12:02:33;95999.03;;;3.24;80.90
706;BME280;21234;48.690;9.016;2022-12-07T12:05:12;95999.44;;;3.14;80.68
706;BME280;21234;48.690;9.016;2022-12-07T12:07:41;95992.81;;;3.23;81.57
706;BME280;21234;48.690;9.016;2022-12-07T12:10:17;95994.22;;;3.26;82.13
706;BME280;21234;48.690;9.016;2022-12-07T12:15:45;95992.84;;;3.17;82.21
706;BME280;21234;48.690;9.016;2022-12-07T12:21:17;95994.72;;;3.03;82.37
706;BME280;21234;48.690;9.016;2022-12-07T12:23:49;95990.97;;;3.17;83.74
706;BME280;21234;48.690;9.016;2022-12-07T12:26:20;95993.03;;;3.22;83.94
706;BME280;21234;48.690;9.016;2022-12-07T12:28:53;95987.38;;;3.36;85.60
706;BME280;21234;48.690;9.016;2022-12-07T12:31:36;95983.47;;;3.32;84.83
706;BME280;21234;48.690;9.016;2022-12-07T12:34:33;95980.16;;;3.30;85.29
706;BME280;21234;48.690;9.016;2022-12-07T12:43:50;95979.97;;;3.25;87.82
706;BME280;21234;48.690;9.016;2022-12-07T12:46:45;95971.75;;;3.20;89.28
706;BME280;21234;48.690;9.016;2022-12-07T12:49:43;95970.94;;;3.20;88.67
706;BME280;21234;48.690;9.016;2022-12-07T12:55:15;95971.28;;;3.36;88.62
706;BME280;21234;48.690;9.016;2022-12-07T12:57:47;95978.34;;;3.24;87.79
706;BME280;21234;48.690;9.016;2022-12-07T13:00:18;95981.25;;;3.23;88.35
706;BME280;21234;48.690;9.016;2022-12-07T13:02:50;95969.22;;;3.25;88.95
706;BME280;21234;48.690;9.016;2022-12-07T13:05:20;95959.34;;;3.19;88.14
706;BME280;21234;48.690;9.016;2022-12-07T13:07:54;95960.19;;;3.13;87.98
706;BME280;21234;48.690;9.016;2022-12-07T13:10:43;95956.91;;;3.11;88.52
706;BME280;21234;48.690;9.016;2022-12-07T13:13:32;95954.00;;;3.06;88.52
706;BME280;21234;48.690;9.016;2022-12-07T13:16:37;95954.41;;;3.10;88.99
706;BME280;21234;48.690;9.016;2022-12-07T13:25:28;95945.25;;;3.30;89.15
706;BME280;21234;48.690;9.016;2022-12-07T13:27:59;95940.88;;;3.43;88.74
706;BME280;21234;48.690;9.016;2022-12-07T13:30:28;95946.25;;;3.43;86.96
706;BME280;21234;48.690;9.016;2022-12-07T13:32:58;95941.88;;;3.48;87.96
706;BME280;21234;48.690;9.016;2022-12-07T13:35:30;95943.94;;;3.46;87.78
706;BME280;21234;48.690;9.016;2022-12-07T13:37:59;95945.38;;;3.49;87.57
706;BME280;21234;48.690;9.016;2022-12-07T13:40:26;95942.53;;;3.37;88.30
706;BME280;21234;48.690;9.016;2022-12-07T13:43:00;95942.75;;;3.35;87.86
706;BME280;21234;48.690;9.016;2022-12-07T13:45:29;95947.47;;;3.40;88.60
706;BME280;21234;48.690;9.016;2022-12-07T13:48:18;95935.09;;;3.39;88.80
706;BME280;21234;48.690;9.016;2022-12-07T13:50:53;95934.91;;;3.34;87.39
706;BME280;21234;48.690;9.016;2022-12-07T13:53:21;95938.22;;;3.29;88.20
706;BME280;21234;48.690;9.016;2022-12-07T13:55:49;95936.34;;;3.30;87.04
706;BME280;21234;48.690;9.016;2022-12-07T13:58:15;95934.50;;;3.30;85.87
706;BME280;21234;48.690;9.016;2022-12-07T14:00:43;95938.00;;;3.31;85.79
706;BME280;21234;48.690;9.016;2022-12-07T14:03:28;95933.47;;;3.31;85.61
706;BME280;21234;48.690;9.016;2022-12-07T14:09:09;95933.88;;;3.28;85.46